Time;durP1;ratioP1;P1;durP2;ratioP2;P2;SDS_P1;SDS_P2;PMS_P1;PMS_P2;Temp;Humidity;BMP_temperature;BMP_pressure;BME280_temperature;BME280_humidity;BME280_pressure;Samples;Min_cycle;Max_cycle;Signal;HPM_P1;HPM_P2
2024/01/02 00:01:34;;;;;;;2.00;1.00;;;8.10;99.90;;;8.17;85.80;99812.59;4855256;28;24431;-64
2024/01/02 00:03:56;;;;;;;1.10;1.00;;;8.10;99.90;;;8.19;85.75;99805.50;4847776;28;24442;-64
2024/01/02 00:06:18;;;;;;;0.75;0.75;;;8.10;99.90;;;8.19;85.50;99806.34;4855497;28;24428;-64
2024/01/02 00:08:40;;;;;;;3.17;1.10;;;8.20;99.90;;;8.14;85.72;99802.41;4840067;28;24486;-66
2024/01/02 00:11:02;;;;;;;1.90;0.90;;;8.10;99.90;;;8.23;85.55;99799.13;4819047;28;24451;-64
2024/01/02 00:13:24;;;;;;;1.60;0.60;;;8.20;99.90;;;8.17;85.69;99786.63;4842933;28;24433;-65
2024/01/02 00:15:46;;;;;;;1.40;0.82;;;8.20;99.90;;;8.20;85.79;99786.41;4830529;28;25078;-65
2024/01/02 00:18:08;;;;;;;1.35;0.90;;;8.10;99.90;;;8.14;85.85;99782.47;4852577;28;24432;-65
2024/01/02 00:20:30;;;;;;;1.80;0.80;;;8.10;99.90;;;8.12;86.61;99776.56;4845975;28;24421;-66
2024/01/02 00:22:52;;;;;;;1.10;1.00;;;8.10;99.90;;;8.22;85.88;99774.91;4823794;28;24444;-63
2024/01/02 00:25:15;;;;;;;2.60;1.10;;;8.20;99.90;;;8.22;85.91;99768.91;4847993;28;24439;-64
2024/01/02 00:27:37;;;;;;;0.70;0.60;;;8.10;99.90;;;8.25;85.94;99758.28;4852410;28;24494;-64
2024/01/02 00:29:59;;;;;;;0.65;0.60;;;8.20;99.90;;;8.21;85.64;99765.47;4852458;28;24535;-64
2024/01/02 00:32:21;;;;;;;1.55;1.10;;;8.20;99.90;;;8.34;85.35;99768.00;4843278;28;24479;-65
2024/01/02 00:34:43;;;;;;;2.60;0.70;;;8.20;99.90;;;8.24;85.97;99760.03;4852228;28;25067;-65
2024/01/02 00:37:05;;;;;;;2.40;1.30;;;8.20;99.90;;;8.21;86.09;99751.66;4855333;28;25059;-64
2024/01/02 00:39:27;;;;;;;2.80;1.00;;;8.20;99.90;;;8.24;86.14;99749.63;4830796;28;24635;-65
2024/01/02 00:41:49;;;;;;;1.20;1.05;;;8.20;99.90;;;8.17;86.70;99745.88;4861540;28;24441;-65
2024/01/02 00:44:11;;;;;;;0.90;0.90;;;8.20;99.90;;;8.18;86.58;99733.69;4847942;28;25221;-65
2024/01/02 00:46:33;;;;;;;1.10;0.80;;;8.10;99.90;;;8.17;86.40;99745.88;4836649;28;24532;-65
2024/01/02 00:48:55;;;;;;;1.10;0.90;;;8.10;99.90;;;8.25;85.88;99722.75;4848761;28;24434;-65
2024/01/02 00:51:17;;;;;;;1.60;0.60;;;8.20;99.90;;;8.21;86.10;99725.66;4846440;28;24479;-65
2024/01/02 00:53:39;;;;;;;1.77;1.15;;;8.20;99.90;;;8.26;85.59;99718.41;4849720;28;24470;-65
2024/01/02 00:56:01;;;;;;;0.60;0.60;;;8.20;99.90;;;8.28;85.85;99712.13;4833626;28;24526;-65
2024/01/02 00:58:23;;;;;;;1.00;0.80;;;8.20;99.90;;;8.30;86.13;99702.44;4837100;28;24443;-65
2024/01/02 01:00:47;;;;;;;2.20;1.00;;;8.20;99.90;;;8.29;85.47;99711.19;4848480;28;24869;-64
2024/01/02 01:03:09;;;;;;;2.10;0.70;;;8.20;99.90;;;8.31;85.50;99685.06;4851645;28;24537;-65
2024/01/02 01:05:31;;;;;;;1.00;0.80;;;8.20;99.90;;;8.22;85.71;99714.34;4857288;28;24439;-64
2024/01/02 01:07:53;;;;;;;0.70;0.70;;;8.20;99.90;;;8.20;85.95;99693.66;4856392;28;24450;-65
2024/01/02 01:10:16;;;;;;;0.90;0.90;;;8.20;99.90;;;8.18;86.45;99689.50;4834925;28;25075;-66
2024/01/02 01:12:38;;;;;;;2.08;0.90;;;8.20;99.90;;;8.21;86.34;99686.69;4849512;28;24540;-65
2024/01/02 01:15:00;;;;;;;0.90;0.70;;;8.20;99.90;;;8.25;86.09;99693.31;4828077;28;25230;-64
2024/01/02 01:17:21;;;;;;;0.70;0.70;;;8.20;99.90;;;8.29;86.47;99682.59;4854594;28;24543;-66
2024/01/02 01:19:44;;;;;;;1.77;1.10;;;8.20;99.90;;;8.22;86.96;99670.19;4845591;28;24984;-65
2024/01/02 01:22:05;;;;;;;0.97;0.80;;;8.20;99.90;;;8.22;86.28;99676.19;4842929;28;24440;-65
2024/01/02 01:24:27;;;;;;;0.90;0.90;;;8.20;99.90;;;8.24;86.69;99669.09;4855894;28;24478;-65
2024/01/02 01:26:52;;;;;;;0.80;0.80;;;8.20;99.90;;;8.22;86.60;99667.56;4856360;28;24478;-65
2024/01/02 01:29:14;;;;;;;1.20;0.90;;;8.20;99.90;;;8.21;87.19;99661.53;4851851;28;25362;-65
2024/01/02 01:31:36;;;;;;;4.82;0.90;;;8.20;99.90;;;8.23;86.87;99664.00;4854205;28;24444;-66
2024/01/02 01:33:58;;;;;;;3.40;0.90;;;8.20;99.90;;;8.22;87.54;99649.38;4854799;28;24443;-65
2024/01/02 01:36:20;;;;;;;0.70;0.57;;;8.20;99.90;;;8.19;87.97;99650.44;4856704;28;24474;-66
2024/01/02 01:38:42;;;;;;;1.83;1.00;;;8.20;99.90;;;8.16;88.25;99631.66;4844773;28;24547;-65
2024/01/02 01:41:04;;;;;;;0.55;0.55;;;8.10;99.90;;;8.13;88.72;99634.50;4831320;28;24533;-66
2024/01/02 01:43:29;;;;;;;0.60;0.60;;;8.10;99.90;;;8.09;88.56;99631.28;4845096;28;24444;-65
2024/01/02 01:45:51;;;;;;;0.80;0.80;;;8.10;99.90;;;8.02;89.93;99621.50;4837256;28;24436;-65
2024/01/02 01:48:13;;;;;;;0.70;0.50;;;8.00;99.90;;;8.03;90.14;99625.78;4826168;28;24534;-66
2024/01/02 01:50:36;;;;;;;0.88;0.73;;;8.00;99.90;;;8.06;89.88;99630.72;4854338;28;25338;-66
2024/01/02 01:53:00;;;;;;;1.08;0.75;;;8.00;99.90;;;8.03;89.82;99611.00;4848488;28;24962;-65
2024/01/02 01:55:22;;;;;;;0.50;0.50;;;8.00;99.90;;;7.93;91.24;99619.63;4854411;28;25091;-65
2024/01/02 01:57:45;;;;;;;2.25;1.02;;;7.90;99.90;;;7.94;91.59;99623.88;4857242;28;24439;-66
2024/01/02 02:00:07;;;;;;;1.08;0.70;;;7.90;99.90;;;7.96;91.90;99611.59;4856412;28;24432;-66
2024/01/02 02:02:29;;;;;;;0.70;0.70;;;7.90;99.90;;;7.88;92.09;99617.38;4854724;28;24539;-64
2024/01/02 02:04:53;;;;;;;0.80;0.50;;;7.90;99.90;;;7.87;92.37;99605.34;4839346;28;24477;-66
2024/01/02 02:07:15;;;;;;;1.58;0.77;;;7.90;99.90;;;7.79;93.41;99589.53;4837691;28;24480;-65
2024/01/02 02:09:37;;;;;;;1.00;0.60;;;7.90;99.90;;;7.66;94.57;99599.19;4851149;28;24545;-65
2024/01/02 02:11:59;;;;;;;1.50;0.75;;;7.80;99.90;;;7.64;95.69;99575.13;4854774;28;24463;-66
2024/01/02 02:14:21;;;;;;;1.50;0.60;;;7.70;99.90;;;7.63;96.30;99599.41;4855966;28;24428;-66
2024/01/02 02:16:43;;;;;;;0.60;0.60;;;7.70;99.90;;;7.59;95.80;99583.25;4838136;28;24513;-66
2024/01/02 02:19:05;;;;;;;1.60;0.77;;;7.60;99.90;;;7.63;96.37;99581.25;4857377;28;24528;-65
2024/01/02 02:21:27;;;;;;;0.60;0.60;;;7.60;99.90;;;7.58;96.70;99575.59;4856920;28;24463;-65
2024/01/02 02:23:49;;;;;;;1.20;0.60;;;7.60;99.90;;;7.50;97.80;99570.13;4857080;28;25215;-65
2024/01/02 02:26:11;;;;;;;0.82;0.50;;;7.50;99.90;;;7.44;99.01;99571.44;4857192;28;24434;-65
2024/01/02 02:28:33;;;;;;;0.80;0.50;;;7.50;99.90;;;7.43;98.35;99562.00;4854570;28;25005;-65
2024/01/02 02:30:54;;;;;;;0.77;0.60;;;7.50;99.90;;;7.40;99.50;99546.66;4853962;28;24809;-65
2024/01/02 02:33:16;;;;;;;1.20;0.70;;;7.40;99.90;;;7.46;99.72;99553.16;4848565;28;24450;-66
2024/01/02 02:35:38;;;;;;;0.50;0.50;;;7.40;99.90;;;7.43;100.00;99543.81;4847036;28;24440;-65
2024/01/02 02:38:00;;;;;;;0.50;0.50;;;7.40;99.90;;;7.44;100.00;99535.09;4855862;28;24424;-65
2024/01/02 02:40:23;;;;;;;1.20;0.50;;;7.40;99.90;;;7.37;100.00;99520.13;4852100;28;24514;-64
2024/01/02 02:42:45;;;;;;;1.50;0.50;;;7.40;99.90;;;7.32;100.00;99527.44;4851893;28;24519;-65
2024/01/02 02:45:07;;;;;;;0.57;0.50;;;7.40;99.90;;;7.37;100.00;99520.94;4856253;28;24459;-65
2024/01/02 02:47:29;;;;;;;1.05;0.60;;;7.40;99.90;;;7.23;100.00;99503.00;4860031;28;24491;-65
2024/01/02 02:49:52;;;;;;;0.50;0.50;;;7.30;99.90;;;7.18;100.00;99504.28;4841207;28;24506;-65
2024/01/02 02:52:14;;;;;;;0.55;0.55;;;7.30;99.90;;;7.18;100.00;99494.75;4862949;28;24447;-64
2024/01/02 02:54:36;;;;;;;1.50;0.70;;;7.20;99.90;;;7.13;100.00;99481.31;4847237;28;24554;-63
2024/01/02 02:56:58;;;;;;;0.60;0.60;;;7.20;99.90;;;7.12;100.00;99474.47;4845595;28;24517;-66
2024/01/02 02:59:20;;;;;;;0.50;0.50;;;7.10;99.90;;;7.14;100.00;99472.56;4853021;28;24434;-66
2024/01/02 03:01:41;;;;;;;0.50;0.50;;;7.10;99.90;;;7.14;100.00;99461.38;4821666;28;24508;-65
2024/01/02 03:04:04;;;;;;;0.43;0.40;;;7.20;99.90;;;7.09;100.00;99448.78;4837800;28;24527;-65
2024/01/02 03:06:29;;;;;;;0.40;0.40;;;7.10;99.90;;;7.06;100.00;99443.81;4855023;28;24482;-65
2024/01/02 03:08:51;;;;;;;0.40;0.40;;;7.10;99.90;;;7.07;100.00;99429.06;4854392;28;24439;-65
2024/01/02 03:11:13;;;;;;;0.50;0.50;;;7.10;99.90;;;7.01;100.00;99422.56;4855419;28;24515;-65
2024/01/02 03:13:35;;;;;;;1.30;0.57;;;7.10;99.90;;;6.99;100.00;99422.69;4856173;28;24482;-65
2024/01/02 03:15:57;;;;;;;0.60;0.50;;;7.00;99.90;;;6.95;100.00;99423.03;4852642;28;24549;-66
2024/01/02 03:18:20;;;;;;;1.70;0.60;;;7.00;99.90;;;6.94;100.00;99409.25;4850545;28;25043;-65
2024/01/02 03:20:42;;;;;;;2.10;0.40;;;7.00;99.90;;;7.01;100.00;99404.41;4828825;28;24855;-66
2024/01/02 03:23:04;;;;;;;0.47;0.40;;;7.00;99.90;;;7.00;100.00;99397.59;4854376;28;24857;-67
2024/01/02 03:25:26;;;;;;;0.50;0.50;;;7.00;99.90;;;7.03;100.00;99386.97;4856179;28;24440;-65
2024/01/02 03:27:48;;;;;;;0.60;0.30;;;7.00;99.90;;;7.01;100.00;99368.94;4856070;28;24527;-65
2024/01/02 03:30:10;;;;;;;0.43;0.40;;;7.10;99.90;;;7.02;100.00;99362.00;4855858;28;24454;-64
2024/01/02 03:32:32;;;;;;;1.60;0.40;;;7.00;99.90;;;7.03;100.00;99343.72;4829684;28;24864;-66
2024/01/02 03:34:55;;;;;;;0.50;0.50;;;7.10;99.90;;;7.05;100.00;99335.81;4841322;28;24446;-66
2024/01/02 03:37:20;;;;;;;0.47;0.47;;;7.10;99.90;;;6.98;100.00;99321.69;4829187;28;24462;-64
2024/01/02 03:39:42;;;;;;;0.40;0.40;;;7.10;99.90;;;6.99;100.00;99329.34;4852202;28;24465;-66
2024/01/02 03:42:04;;;;;;;0.50;0.50;;;7.00;99.90;;;6.98;100.00;99327.69;4854456;28;24428;-64
2024/01/02 03:44:26;;;;;;;0.60;0.60;;;7.00;99.90;;;7.00;100.00;99325.81;4853547;28;25022;-66
2024/01/02 03:46:48;;;;;;;0.50;0.50;;;7.10;99.90;;;7.00;100.00;99325.81;4846028;28;24428;-65
2024/01/02 03:49:10;;;;;;;0.60;0.50;;;7.00;99.90;;;7.00;100.00;99312.03;4854805;28;24527;-66
2024/01/02 03:51:31;;;;;;;0.50;0.50;;;7.00;99.90;;;7.01;100.00;99311.06;4852519;28;24863;-65
2024/01/02 03:53:54;;;;;;;0.50;0.50;;;7.00;99.90;;;7.00;100.00;99305.06;4838154;28;24460;-65
2024/01/02 03:56:16;;;;;;;2.40;0.50;;;7.10;99.90;;;7.02;100.00;99295.41;4848875;28;24551;-65
2024/01/02 03:58:40;;;;;;;0.40;0.40;;;7.10;99.90;;;7.01;100.00;99290.31;4851973;28;24516;-65
2024/01/02 04:01:02;;;;;;;0.40;0.40;;;7.10;99.90;;;7.03;100.00;99294.44;4842345;28;24559;-66
2024/01/02 04:03:24;;;;;;;0.40;0.40;;;7.10;99.90;;;7.00;100.00;99273.13;4839877;28;24447;-65
2024/01/02 04:05:46;;;;;;;0.50;0.50;;;7.00;99.90;;;7.02;100.00;99266.06;4859644;28;24436;-65
2024/01/02 04:08:08;;;;;;;0.50;0.50;;;7.10;99.90;;;7.04;100.00;99261.56;4840666;28;20801;-65
2024/01/02 04:10:31;;;;;;;0.63;0.60;;;7.10;99.90;;;7.10;100.00;99258.47;4846546;28;24451;-65
2024/01/02 04:12:53;;;;;;;0.60;0.60;;;7.10;99.90;;;7.04;100.00;99243.41;4843505;28;24489;-65
2024/01/02 04:15:15;;;;;;;0.40;0.40;;;7.10;99.90;;;7.06;100.00;99231.16;4835424;28;25154;-65
2024/01/02 04:17:37;;;;;;;0.90;0.40;;;7.10;99.90;;;7.05;100.00;99222.53;4844980;28;21217;-64
2024/01/02 04:19:59;;;;;;;0.40;0.40;;;7.10;99.90;;;7.10;100.00;99227.38;4854627;28;24435;-65
2024/01/02 04:22:21;;;;;;;0.50;0.50;;;7.10;99.90;;;7.08;100.00;99216.28;4847201;28;24440;-66
2024/01/02 04:24:43;;;;;;;0.30;0.30;;;7.10;99.90;;;7.10;100.00;99216.16;4856122;28;25146;-65
2024/01/02 04:27:05;;;;;;;0.40;0.40;;;7.10;99.90;;;7.16;100.00;99215.66;4842634;28;25072;-65
2024/01/02 04:29:27;;;;;;;0.40;0.40;;;7.20;99.90;;;7.17;100.00;99197.41;4843247;28;24448;-65
2024/01/02 04:31:49;;;;;;;0.40;0.40;;;7.20;99.90;;;7.20;100.00;99202.31;4836213;28;24431;-66
2024/01/02 04:34:11;;;;;;;0.60;0.30;;;7.20;99.90;;;7.13;100.00;99190.81;4851861;28;24542;-65
2024/01/02 04:36:33;;;;;;;0.40;0.40;;;7.20;99.90;;;7.20;100.00;99183.38;4836902;28;24543;-66
2024/01/02 04:38:55;;;;;;;0.80;0.40;;;7.20;99.90;;;7.19;100.00;99174.75;4849740;28;25088;-66
2024/01/02 04:41:18;;;;;;;0.50;0.50;;;7.20;99.90;;;7.17;100.00;99168.03;4847649;28;24865;-66
2024/01/02 04:43:40;;;;;;;1.40;0.50;;;7.20;99.90;;;7.16;100.00;99169.81;4845570;28;24532;-66
2024/01/02 04:46:03;;;;;;;0.40;0.40;;;7.20;99.90;;;7.12;100.00;99154.59;4842979;28;24535;-66
2024/01/02 04:48:25;;;;;;;0.40;0.40;;;7.10;99.90;;;7.13;100.00;99162.28;4855093;28;24431;-65
2024/01/02 04:50:48;;;;;;;0.40;0.40;;;7.10;99.90;;;7.13;100.00;99149.31;4850659;28;25156;-66
2024/01/02 04:53:13;;;;;;;0.80;0.50;;;7.10;99.90;;;7.19;100.00;99133.25;4854231;28;24804;-63
2024/01/02 04:55:35;;;;;;;0.70;0.50;;;7.20;99.90;;;7.22;100.00;99109.66;4849433;28;24981;-65
2024/01/02 04:57:57;;;;;;;0.60;0.60;;;7.20;99.90;;;7.15;100.00;99126.69;4854705;28;24452;-64
2024/01/02 05:00:19;;;;;;;0.50;0.40;;;7.20;99.90;;;7.19;100.00;99122.88;4853780;28;25217;-65
2024/01/02 05:02:43;;;;;;;0.70;0.40;;;7.20;99.90;;;7.23;100.00;99124.28;4851583;28;24518;-65
2024/01/02 05:05:05;;;;;;;0.50;0.50;;;7.20;99.90;;;7.26;100.00;99099.84;4854598;28;24950;-66
2024/01/02 05:07:27;;;;;;;1.70;0.90;;;7.30;99.90;;;7.26;100.00;99113.63;4836667;28;24440;-65
2024/01/02 05:09:49;;;;;;;0.40;0.40;;;7.30;99.90;;;7.27;100.00;99111.88;4848309;28;24906;-66
2024/01/02 05:12:13;;;;;;;0.40;0.38;;;7.30;99.90;;;7.26;100.00;99100.66;4851389;28;24475;-65
2024/01/02 05:14:35;;;;;;;0.60;0.40;;;7.30;99.90;;;7.28;100.00;99100.56;4851657;28;24448;-65
2024/01/02 05:16:57;;;;;;;1.20;0.40;;;7.30;99.90;;;7.27;100.00;99098.88;4853108;28;24454;-64
2024/01/02 05:19:19;;;;;;;0.50;0.40;;;7.30;99.90;;;7.26;100.00;99069.53;4851124;28;24993;-65
2024/01/02 05:21:41;;;;;;;0.43;0.43;;;7.30;99.90;;;7.27;100.00;99076.38;4854036;28;24432;-64
2024/01/02 05:24:03;;;;;;;1.80;0.40;;;7.30;99.90;;;7.27;100.00;99091.94;4855830;28;24494;-64
2024/01/02 05:26:25;;;;;;;0.40;0.40;;;7.30;99.90;;;7.26;100.00;99074.72;4852530;28;24429;-65
2024/01/02 05:28:47;;;;;;;0.40;0.40;;;7.30;99.90;;;7.32;100.00;99071.66;4839260;28;24551;-66
2024/01/02 05:31:12;;;;;;;0.40;0.40;;;7.30;99.90;;;7.29;100.00;99064.09;4835866;28;24531;-65
2024/01/02 05:33:34;;;;;;;0.40;0.40;;;7.30;99.90;;;7.32;100.00;99056.06;4843330;28;25044;-66
2024/01/02 05:35:56;;;;;;;0.40;0.40;;;7.30;99.90;;;7.31;100.00;99041.44;4852730;28;24543;-67
2024/01/02 05:38:18;;;;;;;0.40;0.40;;;7.30;99.90;;;7.41;100.00;99038.91;4845655;28;25156;-65
2024/01/02 05:40:39;;;;;;;0.30;0.30;;;7.40;99.90;;;7.39;100.00;99023.47;4855691;28;24431;-63
2024/01/02 05:43:02;;;;;;;0.30;0.30;;;7.40;99.90;;;7.39;100.00;99033.03;4856939;28;24428;-65
2024/01/02 05:45:24;;;;;;;0.60;0.50;;;7.40;99.90;;;7.39;100.00;99026.06;4856177;28;24515;-65
2024/01/02 05:47:47;;;;;;;0.30;0.30;;;7.40;99.90;;;7.39;100.00;99010.47;4847963;28;24438;-66
2024/01/02 05:50:09;;;;;;;0.40;0.40;;;7.40;99.90;;;7.43;100.00;99009.28;4845241;28;24543;-65
2024/01/02 05:52:31;;;;;;;0.50;0.50;;;7.40;99.90;;;7.44;100.00;99016.13;4851908;28;24435;-65
2024/01/02 05:54:53;;;;;;;0.60;0.35;;;7.40;99.90;;;7.43;100.00;99004.09;4848254;28;24424;-65
2024/01/02 05:57:15;;;;;;;0.90;0.40;;;7.50;99.90;;;7.45;100.00;99015.16;4853776;28;24818;-65
2024/01/02 05:59:37;;;;;;;0.60;0.40;;;7.40;99.90;;;7.51;100.00;99006.88;4857157;28;24515;-64
2024/01/02 06:01:59;;;;;;;0.50;0.50;;;7.50;99.90;;;7.46;100.00;99021.16;4853260;28;24566;-65
2024/01/02 06:04:21;;;;;;;0.40;0.40;;;7.50;99.90;;;7.49;100.00;99013.97;4851271;28;24739;-65
2024/01/02 06:06:43;;;;;;;0.40;0.40;;;7.50;99.90;;;7.48;100.00;98998.50;4846535;28;24450;-64
2024/01/02 06:09:06;;;;;;;0.30;0.30;;;7.50;99.90;;;7.59;100.00;99001.84;4839783;28;24443;-63
2024/01/02 06:11:28;;;;;;;2.10;0.40;;;7.60;99.90;;;7.52;100.00;98992.94;4852351;28;24519;-64
2024/01/02 06:13:50;;;;;;;0.40;0.40;;;7.60;99.90;;;7.57;100.00;98998.56;4838214;28;24483;-65
2024/01/02 06:16:12;;;;;;;0.40;0.40;;;7.60;99.90;;;7.63;100.00;99005.81;4831289;28;24474;-65
2024/01/02 06:18:33;;;;;;;0.50;0.50;;;7.60;99.90;;;7.63;100.00;99013.59;4857028;28;24458;-65
2024/01/02 06:20:57;;;;;;;0.40;0.40;;;7.70;99.90;;;7.66;100.00;99015.97;4838767;28;24423;-65
2024/01/02 06:23:19;;;;;;;0.50;0.50;;;7.70;99.90;;;7.69;100.00;99007.06;4856824;28;24849;-62
2024/01/02 06:25:41;;;;;;;0.40;0.40;;;7.70;99.90;;;7.72;100.00;99017.19;4857146;28;24424;-65
2024/01/02 06:28:04;;;;;;;0.60;0.60;;;7.70;99.90;;;7.70;100.00;99016.50;4822541;28;24468;-65
2024/01/02 06:30:26;;;;;;;0.50;0.45;;;7.70;99.90;;;7.71;100.00;99013.75;4837597;28;24482;-65
2024/01/02 06:32:49;;;;;;;0.50;0.50;;;7.80;99.90;;;7.82;100.00;99020.63;4846890;28;25013;-66
2024/01/02 06:35:12;;;;;;;2.00;0.50;;;7.80;99.90;;;7.81;100.00;99022.41;4826757;28;24550;-66
2024/01/02 06:37:34;;;;;;;0.50;0.50;;;7.80;99.90;;;7.86;100.00;99023.81;4818923;28;24548;-66
2024/01/02 06:39:57;;;;;;;0.70;0.45;;;7.90;99.90;;;7.91;100.00;99011.22;4841111;28;24566;-65
2024/01/02 06:42:19;;;;;;;0.90;0.50;;;7.90;99.90;;;7.97;100.00;99008.09;4838249;28;24473;-66
2024/01/02 06:44:41;;;;;;;0.40;0.40;;;7.90;99.90;;;7.95;100.00;99017.78;4849926;28;24479;-67
2024/01/02 06:47:03;;;;;;;0.40;0.40;;;7.90;99.90;;;7.97;100.00;99021.91;4836480;28;24451;-65
2024/01/02 06:49:26;;;;;;;0.40;0.40;;;7.90;99.90;;;8.02;100.00;99014.56;4850002;28;24444;-67
2024/01/02 06:51:48;;;;;;;0.50;0.50;;;8.00;99.90;;;8.05;100.00;99013.47;4851441;28;24459;-65
2024/01/02 06:54:09;;;;;;;1.60;0.70;;;8.00;99.90;;;8.04;100.00;99004.84;4855347;28;24507;-65
2024/01/02 06:56:32;;;;;;;0.50;0.50;;;8.00;99.90;;;8.07;100.00;99017.56;4848359;28;24501;-66
2024/01/02 06:58:54;;;;;;;0.30;0.30;;;8.10;99.90;;;8.03;100.00;99005.78;4837243;28;24458;-66
2024/01/02 07:01:20;;;;;;;0.30;0.30;;;8.00;99.90;;;8.14;100.00;98992.69;4837893;28;24425;-66
2024/01/02 07:03:46;;;;;;;0.40;0.40;;;8.10;99.90;;;8.20;100.00;98996.56;4837492;28;24439;-66
2024/01/02 07:06:08;;;;;;;0.40;0.40;;;8.10;99.90;;;8.25;100.00;98999.53;4853760;28;24490;-65
2024/01/02 07:08:30;;;;;;;0.50;0.50;;;8.20;99.90;;;8.25;100.00;99004.75;4852990;28;24447;-65
2024/01/02 07:10:52;;;;;;;1.00;0.40;;;8.20;99.90;;;8.30;100.00;98993.03;4827586;28;24428;-65
2024/01/02 07:13:14;;;;;;;0.80;0.50;;;8.30;99.90;;;8.38;100.00;99016.56;4841990;28;24452;-66
2024/01/02 07:15:36;;;;;;;0.80;0.40;;;8.30;99.90;;;8.41;100.00;99016.28;4840734;28;24520;-66
2024/01/02 07:17:58;;;;;;;0.80;0.40;;;8.40;99.90;;;8.43;100.00;99026.56;4847768;28;24456;-64
2024/01/02 07:20:20;;;;;;;0.60;0.50;;;8.40;99.90;;;8.49;100.00;99023.41;4852986;28;25059;-65
2024/01/02 07:22:42;;;;;;;0.50;0.50;;;8.40;99.90;;;8.56;100.00;99022.72;4854552;28;24909;-65
2024/01/02 07:25:04;;;;;;;0.60;0.50;;;8.50;99.90;;;8.60;100.00;99037.09;4850156;28;24483;-65
2024/01/02 07:27:26;;;;;;;0.50;0.40;;;8.50;99.90;;;8.68;100.00;99035.59;4842633;28;24849;-65
2024/01/02 07:29:48;;;;;;;0.40;0.40;;;8.60;99.90;;;8.72;100.00;99029.97;4819176;28;24503;-65
2024/01/02 07:32:10;;;;;;;0.40;0.40;;;8.60;99.90;;;8.78;100.00;99039.84;4838006;28;24435;-64
2024/01/02 07:34:33;;;;;;;0.50;0.50;;;8.70;99.90;;;8.82;100.00;99040.38;4849768;28;25036;-65
2024/01/02 07:36:55;;;;;;;0.40;0.40;;;8.70;99.90;;;8.79;100.00;99048.47;4846078;28;24471;-64
2024/01/02 07:39:17;;;;;;;0.40;0.40;;;8.70;99.90;;;8.81;100.00;99038.75;4857453;28;24986;-65
2024/01/02 07:41:39;;;;;;;0.40;0.40;;;8.70;99.90;;;8.86;100.00;99057.38;4837519;28;24436;-65
2024/01/02 07:44:03;;;;;;;0.90;0.50;;;8.80;99.90;;;8.90;100.00;99041.31;4849076;28;24538;-65
2024/01/02 07:46:25;;;;;;;0.40;0.40;;;8.80;99.90;;;8.99;100.00;99043.09;4854329;28;24486;-65
2024/01/02 07:48:47;;;;;;;0.50;0.50;;;8.80;99.90;;;9.05;100.00;99029.53;4837273;28;24433;-63
2024/01/02 07:51:09;;;;;;;0.40;0.40;;;8.90;99.90;;;9.12;100.00;99048.00;4851900;28;24455;-65
2024/01/02 07:53:34;;;;;;;0.50;0.50;;;9.00;99.90;;;9.10;100.00;99040.34;4852403;28;24960;-63
2024/01/02 07:55:56;;;;;;;0.70;0.50;;;9.00;99.90;;;9.13;100.00;99045.28;4843924;28;24527;-65
2024/01/02 07:58:18;;;;;;;0.40;0.40;;;9.00;99.90;;;9.20;100.00;99035.94;4835014;28;24480;-65
2024/01/02 08:00:40;;;;;;;0.60;0.52;;;9.10;99.90;;;9.22;100.00;99047.03;4851167;28;24450;-65
2024/01/02 08:03:03;;;;;;;0.65;0.60;;;9.10;99.90;;;9.24;100.00;99058.13;4854250;28;24427;-66
2024/01/02 08:05:25;;;;;;;0.40;0.40;;;9.10;99.90;;;9.27;100.00;99051.81;4852919;28;24475;-66
2024/01/02 08:07:47;;;;;;;0.50;0.50;;;9.20;99.90;;;9.29;100.00;99040.31;4834651;28;24475;-65
2024/01/02 08:10:09;;;;;;;0.50;0.40;;;9.20;99.90;;;9.31;100.00;99038.41;4843583;28;24454;-65
2024/01/02 08:12:31;;;;;;;0.40;0.40;;;9.20;99.90;;;9.35;100.00;99038.91;4823150;28;21463;-64
2024/01/02 08:14:53;;;;;;;0.40;0.40;;;9.20;99.90;;;9.40;100.00;99036.72;4828062;28;24434;-66
2024/01/02 08:17:15;;;;;;;1.42;0.50;;;9.30;99.90;;;9.49;100.00;99053.28;4850364;28;25077;-65
2024/01/02 08:19:37;;;;;;;0.40;0.40;;;9.40;99.90;;;9.56;100.00;99070.00;4837090;28;24524;-66
2024/01/02 08:21:59;;;;;;;0.80;0.50;;;9.50;99.90;;;9.56;100.00;99067.38;4842602;28;24463;-65
2024/01/02 08:24:21;;;;;;;0.70;0.50;;;9.40;99.90;;;9.54;100.00;99079.72;4834165;28;24448;-65
2024/01/02 08:26:43;;;;;;;0.50;0.40;;;9.50;99.90;;;9.53;100.00;99072.84;4849189;28;24428;-65
2024/01/02 08:29:05;;;;;;;0.80;0.50;;;9.40;99.90;;;9.54;100.00;99071.91;4843306;28;24432;-65
2024/01/02 08:31:27;;;;;;;0.40;0.40;;;9.40;99.90;;;9.52;100.00;99077.25;4846591;28;25143;-66
2024/01/02 08:33:49;;;;;;;0.40;0.40;;;9.40;99.90;;;9.51;100.00;99082.59;4848911;28;24447;-66
2024/01/02 08:36:12;;;;;;;0.50;0.50;;;9.40;99.90;;;9.53;100.00;99102.34;4854236;28;24423;-65
2024/01/02 08:38:35;;;;;;;0.50;0.50;;;9.40;99.90;;;9.56;100.00;99109.84;4853753;28;24539;-68
2024/01/02 08:40:57;;;;;;;0.80;0.50;;;9.50;99.90;;;9.60;100.00;99105.19;4851884;28;24661;-65
2024/01/02 08:43:19;;;;;;;0.50;0.50;;;9.40;99.90;;;9.58;100.00;99101.91;4842939;28;24433;-65
2024/01/02 08:45:41;;;;;;;0.50;0.40;;;9.50;99.90;;;9.56;100.00;99099.44;4835032;28;24867;-65
2024/01/02 08:48:04;;;;;;;1.00;0.50;;;9.50;99.90;;;9.60;100.00;99094.78;4849018;28;24432;-63
2024/01/02 08:50:29;;;;;;;0.50;0.50;;;9.50;99.90;;;9.59;100.00;99088.75;4847949;28;24444;-65
2024/01/02 08:52:52;;;;;;;0.40;0.40;;;9.50;99.90;;;9.62;100.00;99092.84;4851528;28;24439;-66
2024/01/02 08:55:14;;;;;;;0.43;0.43;;;9.50;99.90;;;9.66;100.00;99100.25;4842058;28;24985;-65
2024/01/02 08:57:36;;;;;;;0.50;0.50;;;9.50;99.90;;;9.62;100.00;99104.09;4838337;28;24456;-65
2024/01/02 08:59:58;;;;;;;0.40;0.40;;;9.50;99.90;;;9.63;100.00;99107.50;4853979;28;25194;-64
2024/01/02 09:02:20;;;;;;;0.50;0.40;;;9.50;99.90;;;9.65;100.00;99116.00;4847906;28;24539;-65
2024/01/02 09:04:45;;;;;;;0.40;0.40;;;9.50;99.90;;;9.67;100.00;99116.69;4857609;28;24559;-67
2024/01/02 09:07:07;;;;;;;0.52;0.50;;;9.50;99.90;;;9.67;100.00;99116.69;4857371;28;24436;-65
2024/01/02 09:09:29;;;;;;;0.50;0.50;;;9.60;99.90;;;9.72;100.00;99120.50;4852949;28;24443;-65
2024/01/02 09:11:51;;;;;;;0.50;0.50;;;9.60;99.90;;;9.72;100.00;99117.91;4849465;28;24544;-66
2024/01/02 09:14:13;;;;;;;1.10;0.50;;;9.60;99.90;;;9.70;100.00;99124.22;4852803;28;24444;-66
2024/01/02 09:16:36;;;;;;;0.40;0.40;;;9.60;99.90;;;9.80;100.00;99119.78;4848057;28;24517;-63
2024/01/02 09:18:58;;;;;;;0.40;0.40;;;9.70;99.90;;;9.81;99.94;99118.84;4845210;28;24499;-66
2024/01/02 09:21:20;;;;;;;0.40;0.40;;;9.70;99.90;;;9.83;99.91;99129.94;4835948;28;24502;-65
2024/01/02 09:23:42;;;;;;;0.40;0.40;;;9.70;99.90;;;9.86;99.86;99121.84;4856668;28;24524;-63
2024/01/02 09:26:06;;;;;;;0.57;0.40;;;9.70;99.90;;;9.86;100.00;99121.84;4854636;28;24443;-63
2024/01/02 09:28:30;;;;;;;0.80;0.40;;;9.80;99.90;;;9.86;100.00;99116.63;4857870;28;24436;-64
2024/01/02 09:30:52;;;;;;;0.40;0.40;;;9.70;99.90;;;9.89;99.92;99116.34;4855120;28;25067;-63
2024/01/02 09:33:14;;;;;;;0.40;0.40;;;9.70;99.90;;;9.91;100.00;99117.00;4855114;28;24488;-66
2024/01/02 09:35:36;;;;;;;0.95;0.50;;;9.80;99.90;;;9.95;99.15;99113.16;4839857;28;24448;-65
2024/01/02 09:37:58;;;;;;;0.90;0.40;;;9.80;99.90;;;9.98;98.85;99118.94;4857020;28;24542;-66
2024/01/02 09:41:11;;;;;;;0.82;0.50;;;9.90;99.90;;;10.03;98.67;99108.03;4855637;28;24523;-66
2024/01/02 09:43:55;;;;;;;0.40;0.40;;;9.90;99.90;;;10.10;97.33;99114.34;4853167;28;24801;-66
2024/01/02 09:46:40;;;;;;;0.40;0.40;;;9.90;99.90;;;10.16;96.49;99105.16;4826869;28;24490;-64
2024/01/02 09:49:32;;;;;;;0.50;0.50;;;10.00;99.90;;;10.16;96.43;99118.19;4836378;28;24466;-66
2024/01/02 09:52:35;;;;;;;0.50;0.50;;;10.00;99.90;;;10.18;97.32;99114.47;4849603;28;24440;-66
2024/01/02 09:55:18;;;;;;;0.40;0.40;;;10.00;99.90;;;10.21;96.68;99110.75;4854937;28;24523;-66
2024/01/02 09:58:10;;;;;;;0.50;0.50;;;10.10;99.90;;;10.24;95.75;99103.47;4853026;28;24802;-66
2024/01/02 10:01:02;;;;;;;0.40;0.40;;;10.10;99.90;;;10.23;96.39;99093.19;4835386;28;20892;-64
2024/01/02 10:04:35;;;;;;;0.50;0.50;;;10.10;99.90;;;10.20;96.65;99094.28;4857144;28;25058;-65
2024/01/02 10:08:15;;;;;;;0.60;0.50;;;10.10;99.90;;;10.23;95.87;99094.00;4828285;28;24491;-67
2024/01/02 10:11:03;;;;;;;0.50;0.50;;;10.10;99.90;;;10.27;95.64;99095.34;4780360;28;24589;-66
2024/01/02 10:13:48;;;;;;;0.50;0.50;;;10.10;99.90;;;10.31;94.99;99086.28;4764476;29;24832;-66